sensor_id;sensor_type;location;lat;lon;timestamp;P1;durP1;ratioP1;P2;durP2;ratioP2
14139;SDS011;7150;53.514;9.988;2022-08-18T00:00:37;3.13;;;2.27;;
14139;SDS011;7150;53.514;9.988;2022-08-18T00:03:04;2.60;;;2.40;;
14139;SDS011;7150;53.514;9.988;2022-08-18T00:05:31;2.50;;;2.27;;
14139;SDS011;7150;53.514;9.988;2022-08-18T00:07:57;2.40;;;2.20;;
14139;SDS011;7150;53.514;9.988;2022-08-18T00:10:24;2.57;;;2.37;;
14139;SDS011;7150;53.514;9.988;2022-08-18T00:12:50;2.60;;;2.40;;
14139;SDS011;7150;53.514;9.988;2022-08-18T00:15:16;2.50;;;2.30;;
14139;SDS011;7150;53.514;9.988;2022-08-18T00:17:42;2.40;;;2.20;;
14139;SDS011;7150;53.514;9.988;2022-08-18T00:20:10;4.07;;;2.40;;
14139;SDS011;7150;53.514;9.988;2022-08-18T00:22:41;2.57;;;2.37;;
14139;SDS011;7150;53.514;9.988;2022-08-18T00:25:07;3.33;;;2.67;;
14139;SDS011;7150;53.514;9.988;2022-08-18T00:27:34;3.03;;;2.63;;
14139;SDS011;7150;53.514;9.988;2022-08-18T00:30:03;3.00;;;2.70;;
14139;SDS011;7150;53.514;9.988;2022-08-18T00:32:32;2.80;;;2.50;;
14139;SDS011;7150;53.514;9.988;2022-08-18T00:35:13;3.60;;;3.13;;
14139;SDS011;7150;53.514;9.988;2022-08-18T00:37:45;3.07;;;2.77;;
14139;SDS011;7150;53.514;9.988;2022-08-18T00:40:13;3.03;;;2.70;;
14139;SDS011;7150;53.514;9.988;2022-08-18T00:42:43;3.23;;;2.80;;
14139;SDS011;7150;53.514;9.988;2022-08-18T00:45:15;3.53;;;3.07;;
14139;SDS011;7150;53.514;9.988;2022-08-18T00:47:47;3.50;;;3.20;;
14139;SDS011;7150;53.514;9.988;2022-08-18T00:50:15;3.77;;;3.30;;
14139;SDS011;7150;53.514;9.988;2022-08-18T00:52:45;3.80;;;3.40;;
14139;SDS011;7150;53.514;9.988;2022-08-18T00:55:16;4.90;;;3.53;;
14139;SDS011;7150;53.514;9.988;2022-08-18T00:57:43;4.43;;;3.20;;
14139;SDS011;7150;53.514;9.988;2022-08-18T01:00:11;3.97;;;3.57;;
14139;SDS011;7150;53.514;9.988;2022-08-18T01:02:40;4.00;;;3.60;;
14139;SDS011;7150;53.514;9.988;2022-08-18T01:05:17;3.83;;;3.43;;
14139;SDS011;7150;53.514;9.988;2022-08-18T01:07:54;4.60;;;3.87;;
14139;SDS011;7150;53.514;9.988;2022-08-18T01:10:21;4.57;;;3.70;;
14139;SDS011;7150;53.514;9.988;2022-08-18T01:12:56;4.10;;;3.70;;
14139;SDS011;7150;53.514;9.988;2022-08-18T01:15:23;5.30;;;4.20;;
14139;SDS011;7150;53.514;9.988;2022-08-18T01:17:51;3.80;;;3.50;;
14139;SDS011;7150;53.514;9.988;2022-08-18T01:20:48;4.40;;;4.00;;
14139;SDS011;7150;53.514;9.988;2022-08-18T01:23:52;4.17;;;3.77;;
14139;SDS011;7150;53.514;9.988;2022-08-18T01:26:20;4.73;;;3.87;;
14139;SDS011;7150;53.514;9.988;2022-08-18T01:28:48;3.93;;;3.53;;
14139;SDS011;7150;53.514;9.988;2022-08-18T01:31:36;4.70;;;4.30;;
14139;SDS011;7150;53.514;9.988;2022-08-18T01:34:05;4.10;;;3.70;;
14139;SDS011;7150;53.514;9.988;2022-08-18T01:36:33;4.23;;;3.83;;
14139;SDS011;7150;53.514;9.988;2022-08-18T01:39:02;5.37;;;4.10;;
14139;SDS011;7150;53.514;9.988;2022-08-18T01:41:29;4.63;;;4.07;;
14139;SDS011;7150;53.514;9.988;2022-08-18T01:43:55;4.67;;;4.23;;
14139;SDS011;7150;53.514;9.988;2022-08-18T01:46:26;6.03;;;4.27;;
14139;SDS011;7150;53.514;9.988;2022-08-18T01:48:54;4.83;;;4.40;;
14139;SDS011;7150;53.514;9.988;2022-08-18T01:51:22;4.43;;;4.03;;
14139;SDS011;7150;53.514;9.988;2022-08-18T01:53:48;4.57;;;4.17;;
14139;SDS011;7150;53.514;9.988;2022-08-18T01:56:13;4.60;;;4.10;;
14139;SDS011;7150;53.514;9.988;2022-08-18T01:58:41;5.20;;;4.70;;
14139;SDS011;7150;53.514;9.988;2022-08-18T02:01:08;5.03;;;4.37;;
14139;SDS011;7150;53.514;9.988;2022-08-18T02:03:37;4.60;;;4.20;;
14139;SDS011;7150;53.514;9.988;2022-08-18T02:06:07;4.50;;;4.10;;
14139;SDS011;7150;53.514;9.988;2022-08-18T02:08:34;5.00;;;4.50;;
14139;SDS011;7150;53.514;9.988;2022-08-18T02:11:01;4.37;;;3.97;;
14139;SDS011;7150;53.514;9.988;2022-08-18T02:13:27;4.70;;;4.30;;
14139;SDS011;7150;53.514;9.988;2022-08-18T02:15:53;4.77;;;4.37;;
14139;SDS011;7150;53.514;9.988;2022-08-18T02:18:19;4.90;;;4.40;;
14139;SDS011;7150;53.514;9.988;2022-08-18T02:20:47;4.80;;;4.30;;
14139;SDS011;7150;53.514;9.988;2022-08-18T02:23:12;5.20;;;4.70;;
14139;SDS011;7150;53.514;9.988;2022-08-18T02:25:40;5.43;;;4.93;;
14139;SDS011;7150;53.514;9.988;2022-08-18T02:28:06;4.63;;;4.23;;
14139;SDS011;7150;53.514;9.988;2022-08-18T02:30:33;5.00;;;4.50;;
14139;SDS011;7150;53.514;9.988;2022-08-18T02:33:01;5.53;;;4.50;;
14139;SDS011;7150;53.514;9.988;2022-08-18T02:35:27;5.37;;;4.87;;
14139;SDS011;7150;53.514;9.988;2022-08-18T02:37:53;4.90;;;4.50;;
14139;SDS011;7150;53.514;9.988;2022-08-18T02:40:18;5.67;;;4.77;;
14139;SDS011;7150;53.514;9.988;2022-08-18T02:42:44;5.53;;;4.73;;
14139;SDS011;7150;53.514;9.988;2022-08-18T02:45:11;5.40;;;4.90;;
14139;SDS011;7150;53.514;9.988;2022-08-18T02:47:37;5.47;;;4.93;;
14139;SDS011;7150;53.514;9.988;2022-08-18T02:50:04;5.60;;;5.07;;
14139;SDS011;7150;53.514;9.988;2022-08-18T02:52:31;4.63;;;4.23;;
14139;SDS011;7150;53.514;9.988;2022-08-18T02:54:57;5.27;;;4.77;;
14139;SDS011;7150;53.514;9.988;2022-08-18T02:57:25;5.13;;;4.63;;
14139;SDS011;7150;53.514;9.988;2022-08-18T02:59:51;5.90;;;4.80;;
14139;SDS011;7150;53.514;9.988;2022-08-18T03:02:17;5.80;;;5.27;;
14139;SDS011;7150;53.514;9.988;2022-08-18T03:04:42;6.70;;;5.10;;
14139;SDS011;7150;53.514;9.988;2022-08-18T03:07:08;5.73;;;4.83;;
14139;SDS011;7150;53.514;9.988;2022-08-18T03:09:34;5.37;;;4.87;;
14139;SDS011;7150;53.514;9.988;2022-08-18T03:12:01;6.20;;;5.03;;
14139;SDS011;7150;53.514;9.988;2022-08-18T03:14:27;5.07;;;4.57;;
14139;SDS011;7150;53.514;9.988;2022-08-18T03:16:53;5.53;;;4.53;;
14139;SDS011;7150;53.514;9.988;2022-08-18T03:19:19;5.80;;;4.27;;
14139;SDS011;7150;53.514;9.988;2022-08-18T03:21:46;4.47;;;4.07;;
14139;SDS011;7150;53.514;9.988;2022-08-18T03:24:12;5.00;;;4.33;;
14139;SDS011;7150;53.514;9.988;2022-08-18T03:26:39;5.83;;;5.10;;
14139;SDS011;7150;53.514;9.988;2022-08-18T03:29:07;5.60;;;4.70;;
14139;SDS011;7150;53.514;9.988;2022-08-18T03:31:34;4.83;;;4.40;;
14139;SDS011;7150;53.514;9.988;2022-08-18T03:34:02;5.57;;;4.97;;
14139;SDS011;7150;53.514;9.988;2022-08-18T03:36:29;6.07;;;4.73;;
14139;SDS011;7150;53.514;9.988;2022-08-18T03:38:56;5.80;;;5.30;;
14139;SDS011;7150;53.514;9.988;2022-08-18T03:41:23;5.20;;;4.60;;
14139;SDS011;7150;53.514;9.988;2022-08-18T03:43:50;5.40;;;4.90;;
14139;SDS011;7150;53.514;9.988;2022-08-18T03:46:17;6.63;;;4.90;;
14139;SDS011;7150;53.514;9.988;2022-08-18T03:48:44;6.93;;;5.07;;
14139;SDS011;7150;53.514;9.988;2022-08-18T03:51:22;7.57;;;5.43;;
14139;SDS011;7150;53.514;9.988;2022-08-18T03:53:51;6.97;;;5.50;;
14139;SDS011;7150;53.514;9.988;2022-08-18T03:56:20;6.70;;;5.90;;
14139;SDS011;7150;53.514;9.988;2022-08-18T03:58:49;6.00;;;5.37;;
14139;SDS011;7150;53.514;9.988;2022-08-18T04:01:22;6.17;;;5.57;;
14139;SDS011;7150;53.514;9.988;2022-08-18T04:03:51;6.27;;;5.67;;
14139;SDS011;7150;53.514;9.988;2022-08-18T04:06:21;6.70;;;5.40;;
14139;SDS011;7150;53.514;9.988;2022-08-18T04:08:55;7.30;;;6.27;;
14139;SDS011;7150;53.514;9.988;2022-08-18T04:11:22;8.20;;;6.03;;
14139;SDS011;7150;53.514;9.988;2022-08-18T04:13:49;6.40;;;5.70;;
14139;SDS011;7150;53.514;9.988;2022-08-18T04:16:15;6.20;;;5.60;;
14139;SDS011;7150;53.514;9.988;2022-08-18T04:18:41;7.47;;;5.33;;
14139;SDS011;7150;53.514;9.988;2022-08-18T04:21:08;5.70;;;5.10;;
14139;SDS011;7150;53.514;9.988;2022-08-18T04:23:35;6.13;;;5.53;;
14139;SDS011;7150;53.514;9.988;2022-08-18T04:26:02;7.33;;;6.07;;
14139;SDS011;7150;53.514;9.988;2022-08-18T04:28:29;6.60;;;5.77;;
14139;SDS011;7150;53.514;9.988;2022-08-18T04:30:55;6.00;;;5.40;;
14139;SDS011;7150;53.514;9.988;2022-08-18T04:33:25;6.03;;;5.43;;
14139;SDS011;7150;53.514;9.988;2022-08-18T04:35:51;5.87;;;5.30;;
14139;SDS011;7150;53.514;9.988;2022-08-18T04:38:18;6.80;;;6.10;;
14139;SDS011;7150;53.514;9.988;2022-08-18T04:40:44;6.63;;;5.83;;
14139;SDS011;7150;53.514;9.988;2022-08-18T04:43:11;7.50;;;5.47;;
14139;SDS011;7150;53.514;9.988;2022-08-18T04:45:45;5.87;;;5.27;;
14139;SDS011;7150;53.514;9.988;2022-08-18T04:48:12;6.00;;;5.40;;
14139;SDS011;7150;53.514;9.988;2022-08-18T04:50:40;6.20;;;5.17;;
14139;SDS011;7150;53.514;9.988;2022-08-18T04:53:06;5.97;;;5.37;;
14139;SDS011;7150;53.514;9.988;2022-08-18T04:55:53;6.57;;;5.17;;
14139;SDS011;7150;53.514;9.988;2022-08-18T04:58:20;5.77;;;5.13;;
14139;SDS011;7150;53.514;9.988;2022-08-18T05:00:55;6.60;;;5.60;;
14139;SDS011;7150;53.514;9.988;2022-08-18T05:03:22;5.57;;;5.03;;
14139;SDS011;7150;53.514;9.988;2022-08-18T05:05:50;6.90;;;5.77;;
14139;SDS011;7150;53.514;9.988;2022-08-18T05:08:20;7.17;;;5.60;;
14139;SDS011;7150;53.514;9.988;2022-08-18T05:10:46;6.23;;;5.37;;
14139;SDS011;7150;53.514;9.988;2022-08-18T05:13:12;7.10;;;5.40;;
14139;SDS011;7150;53.514;9.988;2022-08-18T05:15:41;6.27;;;5.13;;
14139;SDS011;7150;53.514;9.988;2022-08-18T05:18:07;6.37;;;5.43;;
14139;SDS011;7150;53.514;9.988;2022-08-18T05:20:35;6.23;;;5.30;;
14139;SDS011;7150;53.514;9.988;2022-08-18T05:23:01;5.57;;;5.07;;
14139;SDS011;7150;53.514;9.988;2022-08-18T05:25:27;5.97;;;5.33;;
14139;SDS011;7150;53.514;9.988;2022-08-18T05:27:53;6.17;;;5.10;;
14139;SDS011;7150;53.514;9.988;2022-08-18T05:30:19;7.90;;;5.27;;
14139;SDS011;7150;53.514;9.988;2022-08-18T05:32:45;5.10;;;4.60;;
14139;SDS011;7150;53.514;9.988;2022-08-18T05:35:12;6.40;;;5.13;;
14139;SDS011;7150;53.514;9.988;2022-08-18T05:37:46;5.27;;;4.63;;
14139;SDS011;7150;53.514;9.988;2022-08-18T05:40:25;4.90;;;4.40;;
14139;SDS011;7150;53.514;9.988;2022-08-18T05:42:52;4.60;;;4.07;;
14139;SDS011;7150;53.514;9.988;2022-08-18T05:45:21;5.70;;;4.07;;
14139;SDS011;7150;53.514;9.988;2022-08-18T05:47:48;4.77;;;4.37;;
14139;SDS011;7150;53.514;9.988;2022-08-18T05:50:15;6.20;;;4.67;;
14139;SDS011;7150;53.514;9.988;2022-08-18T05:52:58;5.63;;;5.03;;
14139;SDS011;7150;53.514;9.988;2022-08-18T05:55:32;5.17;;;4.33;;
14139;SDS011;7150;53.514;9.988;2022-08-18T05:58:41;5.00;;;4.50;;
14139;SDS011;7150;53.514;9.988;2022-08-18T06:01:17;4.93;;;4.43;;
14139;SDS011;7150;53.514;9.988;2022-08-18T06:04:01;5.10;;;4.60;;
14139;SDS011;7150;53.514;9.988;2022-08-18T06:06:32;4.93;;;4.33;;
14139;SDS011;7150;53.514;9.988;2022-08-18T06:09:06;5.83;;;5.23;;
14139;SDS011;7150;53.514;9.988;2022-08-18T06:11:37;5.50;;;4.77;;
14139;SDS011;7150;53.514;9.988;2022-08-18T06:14:03;5.30;;;4.80;;
14139;SDS011;7150;53.514;9.988;2022-08-18T06:22:12;7.10;;;5.23;;
14139;SDS011;7150;53.514;9.988;2022-08-18T06:28:00;7.07;;;5.97;;
14139;SDS011;7150;53.514;9.988;2022-08-18T06:35:54;9.13;;;7.20;;
14139;SDS011;7150;53.514;9.988;2022-08-18T06:41:17;8.40;;;6.60;;
14139;SDS011;7150;53.514;9.988;2022-08-18T06:43:54;8.13;;;6.27;;
14139;SDS011;7150;53.514;9.988;2022-08-18T06:46:24;11.07;;;7.93;;
14139;SDS011;7150;53.514;9.988;2022-08-18T06:49:04;12.30;;;8.87;;
14139;SDS011;7150;53.514;9.988;2022-08-18T06:51:33;12.87;;;9.63;;
14139;SDS011;7150;53.514;9.988;2022-08-18T06:54:04;15.40;;;10.37;;
14139;SDS011;7150;53.514;9.988;2022-08-18T06:56:47;17.97;;;12.13;;
14139;SDS011;7150;53.514;9.988;2022-08-18T06:59:16;28.00;;;16.70;;
14139;SDS011;7150;53.514;9.988;2022-08-18T07:01:42;23.03;;;14.77;;
14139;SDS011;7150;53.514;9.988;2022-08-18T07:04:11;22.13;;;13.40;;
14139;SDS011;7150;53.514;9.988;2022-08-18T07:10:50;28.00;;;16.30;;
14139;SDS011;7150;53.514;9.988;2022-08-18T07:12:49;28.97;;;17.07;;
14139;SDS011;7150;53.514;9.988;2022-08-18T07:15:16;21.77;;;12.53;;
14139;SDS011;7150;53.514;9.988;2022-08-18T07:17:48;17.80;;;11.30;;
14139;SDS011;7150;53.514;9.988;2022-08-18T07:20:18;16.30;;;10.60;;
14139;SDS011;7150;53.514;9.988;2022-08-18T07:25:26;14.83;;;10.30;;
14139;SDS011;7150;53.514;9.988;2022-08-18T07:28:01;12.80;;;8.93;;
14139;SDS011;7150;53.514;9.988;2022-08-18T07:30:29;17.47;;;10.83;;
14139;SDS011;7150;53.514;9.988;2022-08-18T07:35:47;20.07;;;12.77;;
14139;SDS011;7150;53.514;9.988;2022-08-18T07:38:24;18.77;;;12.57;;
14139;SDS011;7150;53.514;9.988;2022-08-18T07:40:58;17.40;;;11.73;;
14139;SDS011;7150;53.514;9.988;2022-08-18T07:46:16;17.40;;;11.17;;
14139;SDS011;7150;53.514;9.988;2022-08-18T07:48:47;15.60;;;10.47;;
14139;SDS011;7150;53.514;9.988;2022-08-18T07:51:24;21.40;;;11.93;;
14139;SDS011;7150;53.514;9.988;2022-08-18T07:53:59;21.30;;;12.57;;
14139;SDS011;7150;53.514;9.988;2022-08-18T07:56:29;22.27;;;12.67;;
14139;SDS011;7150;53.514;9.988;2022-08-18T08:07:22;26.37;;;13.73;;
14139;SDS011;7150;53.514;9.988;2022-08-18T08:12:46;18.67;;;10.83;;
14139;SDS011;7150;53.514;9.988;2022-08-18T08:15:26;18.77;;;10.70;;
14139;SDS011;7150;53.514;9.988;2022-08-18T08:18:10;17.80;;;9.93;;
14139;SDS011;7150;53.514;9.988;2022-08-18T08:23:40;24.60;;;14.00;;
14139;SDS011;7150;53.514;9.988;2022-08-18T08:29:44;21.13;;;12.03;;
14139;SDS011;7150;53.514;9.988;2022-08-18T08:32:36;16.60;;;10.30;;
14139;SDS011;7150;53.514;9.988;2022-08-18T08:35:12;15.43;;;10.13;;
14139;SDS011;7150;53.514;9.988;2022-08-18T08:37:52;17.23;;;10.53;;
14139;SDS011;7150;53.514;9.988;2022-08-18T08:40:27;20.40;;;12.23;;
14139;SDS011;7150;53.514;9.988;2022-08-18T08:43:18;16.27;;;10.93;;
14139;SDS011;7150;53.514;9.988;2022-08-18T08:46:09;15.97;;;10.37;;
14139;SDS011;7150;53.514;9.988;2022-08-18T08:48:48;14.27;;;8.73;;
14139;SDS011;7150;53.514;9.988;2022-08-18T08:51:32;13.63;;;9.37;;
14139;SDS011;7150;53.514;9.988;2022-08-18T08:54:22;13.47;;;8.47;;
14139;SDS011;7150;53.514;9.988;2022-08-18T08:56:54;18.90;;;11.93;;
14139;SDS011;7150;53.514;9.988;2022-08-18T08:59:23;18.60;;;11.20;;
14139;SDS011;7150;53.514;9.988;2022-08-18T09:04:33;13.90;;;9.67;;
14139;SDS011;7150;53.514;9.988;2022-08-18T09:10:01;14.47;;;9.23;;
14139;SDS011;7150;53.514;9.988;2022-08-18T09:15:29;13.40;;;9.70;;
14139;SDS011;7150;53.514;9.988;2022-08-18T09:18:16;15.00;;;10.53;;
14139;SDS011;7150;53.514;9.988;2022-08-18T09:24:07;11.23;;;8.57;;
14139;SDS011;7150;53.514;9.988;2022-08-18T09:26:41;12.17;;;8.70;;
14139;SDS011;7150;53.514;9.988;2022-08-18T09:29:23;12.63;;;8.10;;
14139;SDS011;7150;53.514;9.988;2022-08-18T09:35:01;7.83;;;6.23;;
14139;SDS011;7150;53.514;9.988;2022-08-18T09:37:54;11.60;;;7.50;;
14139;SDS011;7150;53.514;9.988;2022-08-18T09:40:49;8.70;;;6.90;;
14139;SDS011;7150;53.514;9.988;2022-08-18T09:43:37;8.37;;;6.50;;
14139;SDS011;7150;53.514;9.988;2022-08-18T09:46:48;6.90;;;5.83;;
14139;SDS011;7150;53.514;9.988;2022-08-18T09:54:20;7.93;;;6.00;;
14139;SDS011;7150;53.514;9.988;2022-08-18T10:01:58;9.47;;;7.60;;
14139;SDS011;7150;53.514;9.988;2022-08-18T10:04:29;13.33;;;9.13;;
14139;SDS011;7150;53.514;9.988;2022-08-18T10:07:40;10.87;;;8.53;;
14139;SDS011;7150;53.514;9.988;2022-08-18T10:21:14;11.80;;;8.13;;
14139;SDS011;7150;53.514;9.988;2022-08-18T10:28:58;10.47;;;8.07;;
14139;SDS011;7150;53.514;9.988;2022-08-18T10:39:51;7.20;;;5.77;;
14139;SDS011;7150;53.514;9.988;2022-08-18T10:42:24;10.93;;;8.33;;
14139;SDS011;7150;53.514;9.988;2022-08-18T10:53:50;11.10;;;8.07;;
14139;SDS011;7150;53.514;9.988;2022-08-18T10:56:51;12.40;;;9.33;;
14139;SDS011;7150;53.514;9.988;2022-08-18T10:59:29;11.40;;;9.57;;
14139;SDS011;7150;53.514;9.988;2022-08-18T11:04:52;8.47;;;7.20;;
14139;SDS011;7150;53.514;9.988;2022-08-18T11:07:23;9.17;;;7.30;;
14139;SDS011;7150;53.514;9.988;2022-08-18T11:09:52;8.70;;;7.80;;
14139;SDS011;7150;53.514;9.988;2022-08-18T11:20:30;8.83;;;7.30;;
14139;SDS011;7150;53.514;9.988;2022-08-18T11:22:58;9.33;;;7.77;;
14139;SDS011;7150;53.514;9.988;2022-08-18T11:25:27;8.50;;;6.70;;
14139;SDS011;7150;53.514;9.988;2022-08-18T11:27:58;8.97;;;7.97;;
14139;SDS011;7150;53.514;9.988;2022-08-18T11:30:26;9.50;;;8.40;;
14139;SDS011;7150;53.514;9.988;2022-08-18T11:32:56;9.87;;;8.57;;
14139;SDS011;7150;53.514;9.988;2022-08-18T11:35:28;9.57;;;7.53;;
14139;SDS011;7150;53.514;9.988;2022-08-18T11:38:01;9.63;;;8.43;;
14139;SDS011;7150;53.514;9.988;2022-08-18T11:40:38;8.87;;;7.80;;
14139;SDS011;7150;53.514;9.988;2022-08-18T12:07:15;7.77;;;6.97;;
14139;SDS011;7150;53.514;9.988;2022-08-18T12:12:49;6.77;;;6.07;;
14139;SDS011;7150;53.514;9.988;2022-08-18T12:17:42;5.50;;;5.00;;
14139;SDS011;7150;53.514;9.988;2022-08-18T12:20:10;9.00;;;4.80;;
14139;SDS011;7150;53.514;9.988;2022-08-18T12:22:37;5.93;;;5.30;;
14139;SDS011;7150;53.514;9.988;2022-08-18T12:25:06;6.57;;;5.87;;
14139;SDS011;7150;53.514;9.988;2022-08-18T12:27:33;6.10;;;5.50;;
14139;SDS011;7150;53.514;9.988;2022-08-18T12:29:59;7.10;;;6.30;;
14139;SDS011;7150;53.514;9.988;2022-08-18T12:32:26;7.33;;;5.40;;
14139;SDS011;7150;53.514;9.988;2022-08-18T12:34:56;6.80;;;6.20;;
14139;SDS011;7150;53.514;9.988;2022-08-18T12:37:23;7.37;;;6.20;;
14139;SDS011;7150;53.514;9.988;2022-08-18T12:39:50;5.53;;;5.03;;
14139;SDS011;7150;53.514;9.988;2022-08-18T12:42:16;5.23;;;4.73;;
14139;SDS011;7150;53.514;9.988;2022-08-18T12:44:42;4.73;;;4.30;;
14139;SDS011;7150;53.514;9.988;2022-08-18T12:47:12;4.43;;;4.03;;
14139;SDS011;7150;53.514;9.988;2022-08-18T12:49:41;5.97;;;5.03;;
14139;SDS011;7150;53.514;9.988;2022-08-18T12:52:07;5.53;;;5.00;;
14139;SDS011;7150;53.514;9.988;2022-08-18T12:54:33;5.80;;;5.20;;
14139;SDS011;7150;53.514;9.988;2022-08-18T12:57:00;4.77;;;4.37;;
14139;SDS011;7150;53.514;9.988;2022-08-18T12:59:26;4.77;;;4.37;;
14139;SDS011;7150;53.514;9.988;2022-08-18T13:01:52;4.80;;;4.30;;
14139;SDS011;7150;53.514;9.988;2022-08-18T13:04:18;5.83;;;5.23;;
14139;SDS011;7150;53.514;9.988;2022-08-18T13:06:45;5.50;;;4.97;;
14139;SDS011;7150;53.514;9.988;2022-08-18T13:09:19;5.43;;;4.90;;
14139;SDS011;7150;53.514;9.988;2022-08-18T13:11:45;7.63;;;5.93;;
14139;SDS011;7150;53.514;9.988;2022-08-18T13:14:10;5.90;;;5.30;;
14139;SDS011;7150;53.514;9.988;2022-08-18T13:16:38;5.43;;;4.93;;
14139;SDS011;7150;53.514;9.988;2022-08-18T13:19:05;5.27;;;4.87;;
14139;SDS011;7150;53.514;9.988;2022-08-18T13:21:31;7.77;;;5.57;;
14139;SDS011;7150;53.514;9.988;2022-08-18T13:23:57;6.27;;;5.37;;
14139;SDS011;7150;53.514;9.988;2022-08-18T13:26:25;6.97;;;5.07;;
14139;SDS011;7150;53.514;9.988;2022-08-18T13:28:53;4.80;;;4.40;;
14139;SDS011;7150;53.514;9.988;2022-08-18T13:31:19;4.40;;;4.00;;
14139;SDS011;7150;53.514;9.988;2022-08-18T13:33:44;4.83;;;4.30;;
14139;SDS011;7150;53.514;9.988;2022-08-18T13:36:10;5.90;;;4.60;;
14139;SDS011;7150;53.514;9.988;2022-08-18T13:38:35;5.00;;;4.03;;
14139;SDS011;7150;53.514;9.988;2022-08-18T13:41:01;3.80;;;3.50;;
14139;SDS011;7150;53.514;9.988;2022-08-18T13:43:37;4.50;;;4.10;;
14139;SDS011;7150;53.514;9.988;2022-08-18T13:46:08;4.30;;;3.90;;
14139;SDS011;7150;53.514;9.988;2022-08-18T13:48:36;4.23;;;3.73;;
14139;SDS011;7150;53.514;9.988;2022-08-18T13:51:02;4.57;;;3.97;;
14139;SDS011;7150;53.514;9.988;2022-08-18T13:53:29;3.47;;;3.17;;
14139;SDS011;7150;53.514;9.988;2022-08-18T13:55:55;4.33;;;3.93;;
14139;SDS011;7150;53.514;9.988;2022-08-18T13:58:24;4.43;;;3.70;;
14139;SDS011;7150;53.514;9.988;2022-08-18T14:00:54;4.80;;;4.37;;
14139;SDS011;7150;53.514;9.988;2022-08-18T14:03:22;4.63;;;4.00;;
14139;SDS011;7150;53.514;9.988;2022-08-18T14:05:48;5.83;;;4.60;;
14139;SDS011;7150;53.514;9.988;2022-08-18T14:08:15;4.60;;;4.20;;
14139;SDS011;7150;53.514;9.988;2022-08-18T14:10:41;4.43;;;4.03;;
14139;SDS011;7150;53.514;9.988;2022-08-18T14:13:06;5.20;;;4.43;;
14139;SDS011;7150;53.514;9.988;2022-08-18T14:15:32;4.20;;;3.80;;
14139;SDS011;7150;53.514;9.988;2022-08-18T14:18:02;4.73;;;4.00;;
14139;SDS011;7150;53.514;9.988;2022-08-18T14:20:28;4.83;;;4.43;;
14139;SDS011;7150;53.514;9.988;2022-08-18T14:23:12;4.40;;;4.00;;
14139;SDS011;7150;53.514;9.988;2022-08-18T14:25:56;5.00;;;4.50;;
14139;SDS011;7150;53.514;9.988;2022-08-18T14:28:40;5.03;;;4.53;;
14139;SDS011;7150;53.514;9.988;2022-08-18T14:31:06;5.23;;;4.67;;
14139;SDS011;7150;53.514;9.988;2022-08-18T14:33:32;5.40;;;4.90;;
14139;SDS011;7150;53.514;9.988;2022-08-18T14:35:58;5.97;;;5.37;;
14139;SDS011;7150;53.514;9.988;2022-08-18T14:38:23;5.37;;;4.87;;
14139;SDS011;7150;53.514;9.988;2022-08-18T14:40:49;5.23;;;4.73;;
14139;SDS011;7150;53.514;9.988;2022-08-18T14:43:16;5.33;;;4.50;;
14139;SDS011;7150;53.514;9.988;2022-08-18T14:45:45;5.20;;;4.70;;
14139;SDS011;7150;53.514;9.988;2022-08-18T14:48:13;5.10;;;4.60;;
14139;SDS011;7150;53.514;9.988;2022-08-18T14:50:42;5.43;;;4.93;;
14139;SDS011;7150;53.514;9.988;2022-08-18T14:53:12;4.97;;;4.57;;
14139;SDS011;7150;53.514;9.988;2022-08-18T14:55:38;5.13;;;4.70;;
14139;SDS011;7150;53.514;9.988;2022-08-18T14:58:04;6.03;;;5.43;;
14139;SDS011;7150;53.514;9.988;2022-08-18T15:00:30;5.13;;;4.63;;
14139;SDS011;7150;53.514;9.988;2022-08-18T15:02:56;4.97;;;4.47;;
14139;SDS011;7150;53.514;9.988;2022-08-18T15:05:22;4.83;;;4.43;;
14139;SDS011;7150;53.514;9.988;2022-08-18T15:07:48;4.20;;;3.80;;
14139;SDS011;7150;53.514;9.988;2022-08-18T15:10:14;4.50;;;4.10;;
14139;SDS011;7150;53.514;9.988;2022-08-18T15:12:40;4.37;;;3.97;;
14139;SDS011;7150;53.514;9.988;2022-08-18T15:15:08;4.03;;;3.63;;
14139;SDS011;7150;53.514;9.988;2022-08-18T15:17:39;4.00;;;3.70;;
14139;SDS011;7150;53.514;9.988;2022-08-18T15:20:05;4.27;;;3.87;;
14139;SDS011;7150;53.514;9.988;2022-08-18T15:22:39;4.27;;;3.87;;
14139;SDS011;7150;53.514;9.988;2022-08-18T15:25:25;4.70;;;4.30;;
14139;SDS011;7150;53.514;9.988;2022-08-18T15:28:39;4.90;;;4.50;;
14139;SDS011;7150;53.514;9.988;2022-08-18T15:30:58;4.20;;;3.80;;
14139;SDS011;7150;53.514;9.988;2022-08-18T15:33:23;4.63;;;4.23;;
14139;SDS011;7150;53.514;9.988;2022-08-18T15:35:50;4.93;;;4.37;;
14139;SDS011;7150;53.514;9.988;2022-08-18T15:38:18;4.50;;;4.10;;
14139;SDS011;7150;53.514;9.988;2022-08-18T15:43:24;3.90;;;3.60;;
14139;SDS011;7150;53.514;9.988;2022-08-18T15:45:55;4.37;;;3.97;;
14139;SDS011;7150;53.514;9.988;2022-08-18T15:48:21;5.43;;;4.00;;
14139;SDS011;7150;53.514;9.988;2022-08-18T15:50:48;4.40;;;4.00;;
14139;SDS011;7150;53.514;9.988;2022-08-18T15:53:15;5.27;;;3.90;;
14139;SDS011;7150;53.514;9.988;2022-08-18T15:55:44;4.70;;;4.27;;
14139;SDS011;7150;53.514;9.988;2022-08-18T15:58:10;4.60;;;3.97;;
14139;SDS011;7150;53.514;9.988;2022-08-18T16:00:37;6.47;;;4.43;;
14139;SDS011;7150;53.514;9.988;2022-08-18T16:03:07;4.70;;;3.93;;
14139;SDS011;7150;53.514;9.988;2022-08-18T16:05:37;5.07;;;4.57;;
14139;SDS011;7150;53.514;9.988;2022-08-18T16:08:06;4.57;;;4.13;;
14139;SDS011;7150;53.514;9.988;2022-08-18T16:10:34;4.90;;;4.00;;
14139;SDS011;7150;53.514;9.988;2022-08-18T16:13:01;5.57;;;4.30;;
14139;SDS011;7150;53.514;9.988;2022-08-18T16:15:28;5.80;;;4.80;;
14139;SDS011;7150;53.514;9.988;2022-08-18T16:17:57;4.80;;;4.30;;
14139;SDS011;7150;53.514;9.988;2022-08-18T16:20:24;4.40;;;4.00;;
14139;SDS011;7150;53.514;9.988;2022-08-18T16:22:51;4.30;;;3.83;;
14139;SDS011;7150;53.514;9.988;2022-08-18T16:25:17;4.33;;;3.93;;
14139;SDS011;7150;53.514;9.988;2022-08-18T16:27:44;4.23;;;3.50;;
14139;SDS011;7150;53.514;9.988;2022-08-18T16:30:13;4.27;;;3.43;;
14139;SDS011;7150;53.514;9.988;2022-08-18T16:32:42;3.80;;;3.47;;
14139;SDS011;7150;53.514;9.988;2022-08-18T16:35:08;3.57;;;3.27;;
14139;SDS011;7150;53.514;9.988;2022-08-18T16:37:35;5.27;;;3.47;;
14139;SDS011;7150;53.514;9.988;2022-08-18T16:40:00;7.20;;;4.10;;
14139;SDS011;7150;53.514;9.988;2022-08-18T16:42:26;4.90;;;3.77;;
14139;SDS011;7150;53.514;9.988;2022-08-18T16:44:57;4.03;;;3.20;;
14139;SDS011;7150;53.514;9.988;2022-08-18T16:47:23;3.30;;;3.00;;
14139;SDS011;7150;53.514;9.988;2022-08-18T16:49:49;5.87;;;3.77;;
14139;SDS011;7150;53.514;9.988;2022-08-18T16:52:15;4.17;;;3.37;;
14139;SDS011;7150;53.514;9.988;2022-08-18T16:54:42;4.47;;;3.60;;
14139;SDS011;7150;53.514;9.988;2022-08-18T16:57:08;5.30;;;3.80;;
14139;SDS011;7150;53.514;9.988;2022-08-18T16:59:35;5.43;;;3.50;;
14139;SDS011;7150;53.514;9.988;2022-08-18T17:02:20;5.23;;;3.60;;
14139;SDS011;7150;53.514;9.988;2022-08-18T17:05:05;4.20;;;3.80;;
14139;SDS011;7150;53.514;9.988;2022-08-18T17:07:32;3.83;;;3.30;;
14139;SDS011;7150;53.514;9.988;2022-08-18T17:09:59;4.13;;;3.70;;
14139;SDS011;7150;53.514;9.988;2022-08-18T17:12:25;5.83;;;4.17;;
14139;SDS011;7150;53.514;9.988;2022-08-18T17:14:52;5.20;;;3.80;;
14139;SDS011;7150;53.514;9.988;2022-08-18T17:17:18;3.77;;;3.33;;
14139;SDS011;7150;53.514;9.988;2022-08-18T17:19:44;5.73;;;4.50;;
14139;SDS011;7150;53.514;9.988;2022-08-18T17:22:11;5.07;;;4.43;;
14139;SDS011;7150;53.514;9.988;2022-08-18T17:24:37;6.10;;;4.27;;
14139;SDS011;7150;53.514;9.988;2022-08-18T17:27:23;5.07;;;3.80;;
14139;SDS011;7150;53.514;9.988;2022-08-18T17:32:41;5.00;;;4.07;;
14139;SDS011;7150;53.514;9.988;2022-08-18T17:35:21;4.63;;;3.70;;
14139;SDS011;7150;53.514;9.988;2022-08-18T17:40:38;5.50;;;4.00;;
14139;SDS011;7150;53.514;9.988;2022-08-18T17:43:08;7.50;;;4.20;;
14139;SDS011;7150;53.514;9.988;2022-08-18T17:45:38;5.07;;;3.93;;
14139;SDS011;7150;53.514;9.988;2022-08-18T17:48:12;5.00;;;4.13;;
14139;SDS011;7150;53.514;9.988;2022-08-18T17:50:45;6.60;;;3.77;;